createdAt,value
2022-09-17T00:00:50.647Z,997.06
2022-09-17T00:01:50.721Z,997.03
2022-09-17T00:02:50.718Z,996.97
2022-09-17T00:03:50.627Z,996.96
2022-09-17T00:04:50.617Z,996.99
2022-09-17T00:05:50.624Z,996.99
2022-09-17T00:06:50.577Z,997.01
2022-09-17T00:07:50.616Z,997.02
2022-09-17T00:08:50.555Z,997.01
2022-09-17T00:09:50.554Z,997.05
2022-09-17T00:10:50.533Z,997.07
2022-09-17T00:11:50.516Z,997.08
2022-09-17T00:12:50.536Z,997.11
2022-09-17T00:13:50.620Z,997.11
2022-09-17T00:14:50.477Z,997.14
2022-09-17T00:15:50.541Z,997.11
2022-09-17T00:16:50.472Z,997.07
2022-09-17T00:17:50.485Z,997.00
2022-09-17T00:18:50.426Z,996.99
2022-09-17T00:19:50.396Z,997.04
2022-09-17T00:20:50.394Z,996.98
2022-09-17T00:21:50.398Z,996.98
2022-09-17T00:22:50.378Z,997.00
2022-09-17T00:23:50.355Z,996.98
2022-09-17T00:24:50.346Z,996.97
2022-09-17T00:25:50.329Z,997.00
2022-09-17T00:26:50.330Z,997.00
2022-09-17T00:27:50.337Z,997.01
2022-09-17T00:28:50.305Z,997.00
2022-09-17T00:29:50.297Z,996.98
2022-09-17T00:30:50.412Z,997.00
2022-09-17T00:31:50.397Z,996.99
2022-09-17T00:32:50.278Z,997.00
2022-09-17T00:33:50.271Z,997.01
2022-09-17T00:34:50.205Z,996.99
2022-09-17T00:35:50.188Z,996.95
2022-09-17T00:36:50.207Z,996.95
2022-09-17T00:38:59.885Z,996.99
2022-09-17T00:39:59.900Z,997.02
2022-09-17T00:40:59.835Z,997.03
2022-09-17T00:41:59.817Z,997.05
2022-09-17T00:42:59.825Z,997.04
2022-09-17T00:43:59.819Z,997.10
2022-09-17T00:44:59.787Z,997.08
2022-09-17T00:45:59.765Z,997.10
2022-09-17T00:46:59.752Z,997.07
2022-09-17T00:47:59.756Z,997.09
2022-09-17T00:48:59.725Z,997.07
2022-09-17T00:49:59.706Z,997.07
2022-09-17T00:50:59.704Z,997.10
2022-09-17T00:52:00.673Z,997.03
2022-09-17T00:52:59.692Z,997.04
2022-09-17T00:53:59.655Z,997.04
2022-09-17T00:54:59.658Z,997.04
2022-09-17T00:55:59.633Z,997.01
2022-09-17T00:56:59.625Z,997.07
2022-09-17T00:57:59.624Z,997.02
2022-09-17T00:58:59.620Z,997.05
2022-09-17T00:59:59.575Z,997.05
2022-09-17T01:00:59.635Z,997.05
2022-09-17T01:01:59.589Z,997.09
2022-09-17T01:02:59.555Z,997.12
2022-09-17T01:03:59.522Z,997.07
2022-09-17T01:04:59.517Z,997.08
2022-09-17T01:05:59.502Z,997.06
2022-09-17T01:06:59.485Z,997.10
2022-09-17T01:07:59.485Z,997.09
2022-09-17T01:08:59.455Z,997.09
2022-09-17T01:09:59.446Z,997.11
2022-09-17T01:10:59.433Z,997.12
2022-09-17T01:11:59.416Z,997.18
2022-09-17T01:12:59.431Z,997.12
2022-09-17T01:13:59.458Z,997.11
2022-09-17T01:14:59.385Z,997.13
2022-09-17T01:15:59.403Z,997.13
2022-09-17T01:16:59.347Z,997.13
2022-09-17T01:17:59.347Z,997.16
2022-09-17T01:18:59.325Z,997.17
2022-09-17T01:19:59.305Z,997.13
2022-09-17T01:20:59.296Z,997.12
2022-09-17T01:21:59.276Z,997.14
2022-09-17T01:22:59.286Z,997.11
2022-09-17T01:23:59.246Z,997.11
2022-09-17T01:24:59.248Z,997.13
2022-09-17T01:25:59.218Z,997.13
2022-09-17T01:26:59.214Z,997.14
2022-09-17T01:27:59.216Z,997.16
2022-09-17T01:28:59.184Z,997.14
2022-09-17T01:29:59.174Z,997.19
2022-09-17T01:30:59.225Z,997.23
2022-09-17T01:31:59.165Z,997.15
2022-09-17T01:32:59.136Z,997.18
2022-09-17T01:33:59.107Z,997.17
2022-09-17T01:34:59.111Z,997.19
2022-09-17T01:35:59.096Z,997.13
2022-09-17T01:36:59.086Z,997.16
2022-09-17T01:37:59.085Z,997.18
2022-09-17T01:38:59.057Z,997.16
2022-09-17T01:39:59.083Z,997.16
2022-09-17T01:40:59.027Z,997.11
2022-09-17T01:41:59.006Z,997.14
2022-09-17T01:42:59.017Z,997.13
2022-09-17T01:43:58.986Z,997.11
2022-09-17T01:44:58.976Z,997.15
2022-09-17T01:45:58.954Z,997.15
2022-09-17T01:46:59.005Z,997.18
2022-09-17T01:47:58.937Z,997.11
2022-09-17T01:48:58.914Z,997.13
2022-09-17T01:49:58.897Z,997.16
2022-09-17T01:50:58.885Z,997.16
2022-09-17T01:51:58.874Z,997.21
2022-09-17T01:52:58.887Z,997.16
2022-09-17T01:53:58.890Z,997.20
2022-09-17T01:54:58.838Z,997.20
2022-09-17T01:55:58.818Z,997.17
2022-09-17T01:56:58.807Z,997.20
2022-09-17T01:57:58.814Z,997.19
2022-09-17T01:58:58.796Z,997.20
2022-09-17T01:59:58.797Z,997.20
2022-09-17T02:00:58.836Z,997.23
2022-09-17T02:01:58.821Z,997.24
2022-09-17T02:02:58.747Z,997.26
2022-09-17T02:03:58.708Z,997.24
2022-09-17T02:04:58.706Z,997.20
2022-09-17T02:05:58.678Z,997.17
2022-09-17T02:06:58.676Z,997.23
2022-09-17T02:07:58.667Z,997.23
2022-09-17T02:08:58.737Z,997.22
2022-09-17T02:09:58.628Z,997.22
2022-09-17T02:10:58.627Z,997.26
2022-09-17T02:11:58.608Z,997.26
2022-09-17T02:12:58.615Z,997.26
2022-09-17T02:13:58.608Z,997.26
2022-09-17T02:14:58.575Z,997.29
2022-09-17T02:15:58.592Z,997.26
2022-09-17T02:16:58.548Z,997.28
2022-09-17T02:17:58.547Z,997.24
2022-09-17T02:18:58.520Z,997.27
2022-09-17T02:19:58.527Z,997.25
2022-09-17T02:20:58.495Z,997.25
2022-09-17T02:21:58.468Z,997.24
2022-09-17T02:22:58.479Z,997.26
2022-09-17T02:23:58.514Z,997.24
2022-09-17T02:24:58.448Z,997.25
2022-09-17T02:25:58.422Z,997.25
2022-09-17T02:26:58.411Z,997.25
2022-09-17T02:27:58.408Z,997.27
2022-09-17T02:28:58.376Z,997.26
2022-09-17T02:29:58.368Z,997.24
2022-09-17T02:30:58.397Z,997.23
2022-09-17T02:31:58.329Z,997.25
2022-09-17T02:32:58.339Z,997.22
2022-09-17T02:33:58.403Z,997.26
2022-09-17T02:34:58.292Z,997.25
2022-09-17T02:35:58.278Z,997.23
2022-09-17T02:36:58.276Z,997.25
2022-09-17T02:37:58.268Z,997.28
2022-09-17T02:38:58.239Z,997.23
2022-09-17T02:39:58.262Z,997.26
2022-09-17T02:40:58.210Z,997.23
2022-09-17T02:41:58.198Z,997.24
2022-09-17T02:42:58.210Z,997.27
2022-09-17T02:43:58.189Z,997.25
2022-09-17T02:44:58.171Z,997.24
2022-09-17T02:45:58.139Z,997.26
2022-09-17T02:46:58.150Z,997.23
2022-09-17T02:47:58.139Z,997.24
2022-09-17T02:48:58.118Z,997.21
2022-09-17T02:49:58.098Z,997.23
2022-09-17T02:50:58.087Z,997.25
2022-09-17T02:51:58.066Z,997.26
2022-09-17T02:52:58.059Z,997.25
2022-09-17T02:53:58.063Z,997.25
2022-09-17T02:54:58.026Z,997.26
2022-09-17T02:55:58.009Z,997.29
2022-09-17T02:56:58.000Z,997.29
2022-09-17T02:57:57.989Z,997.26
2022-09-17T02:58:58.142Z,997.26
2022-09-17T02:59:57.959Z,997.27
2022-09-17T03:00:58.065Z,997.25
2022-09-17T03:01:58.008Z,997.28
2022-09-17T03:02:57.928Z,997.29
2022-09-17T03:03:57.919Z,997.33
2022-09-17T03:04:57.892Z,997.25
2022-09-17T03:05:57.879Z,997.27
2022-09-17T03:06:57.870Z,997.26
2022-09-17T03:07:57.850Z,997.32
2022-09-17T03:08:57.860Z,997.32
2022-09-17T03:09:57.821Z,997.33
2022-09-17T03:10:57.829Z,997.31
2022-09-17T03:11:57.789Z,997.30
2022-09-17T03:12:57.780Z,997.32
2022-09-17T03:13:57.826Z,997.30
2022-09-17T03:14:57.760Z,997.28
2022-09-17T03:15:57.785Z,997.29
2022-09-17T03:16:57.731Z,997.30
2022-09-17T03:17:57.720Z,997.29
2022-09-17T03:18:57.720Z,997.29
2022-09-17T03:19:57.682Z,997.25
2022-09-17T03:20:57.678Z,997.26
2022-09-17T03:21:57.659Z,997.24
2022-09-17T03:22:57.658Z,997.28
2022-09-17T03:23:57.651Z,997.25
2022-09-17T03:24:57.629Z,997.29
2022-09-17T03:25:57.590Z,997.27
2022-09-17T03:26:57.600Z,997.22
2022-09-17T03:27:57.591Z,997.26
2022-09-17T03:28:57.589Z,997.20
2022-09-17T03:29:57.561Z,997.21
2022-09-17T03:30:57.617Z,997.08
2022-09-17T03:31:57.521Z,997.03
2022-09-17T03:32:57.517Z,997.06
2022-09-17T03:33:57.529Z,997.08
2022-09-17T03:34:57.489Z,997.01
2022-09-17T03:35:57.470Z,997.04
2022-09-17T03:36:57.470Z,997.07
2022-09-17T03:37:57.430Z,997.09
2022-09-17T03:38:57.453Z,997.14
2022-09-17T03:39:57.454Z,997.13
2022-09-17T03:40:57.403Z,997.17
2022-09-17T03:41:57.393Z,997.21
2022-09-17T03:42:57.378Z,997.25
2022-09-17T03:43:57.382Z,997.26
2022-09-17T03:44:57.353Z,997.29
2022-09-17T03:45:57.346Z,997.33
2022-09-17T03:46:57.324Z,997.44
2022-09-17T03:47:57.311Z,997.45
2022-09-17T03:48:57.319Z,997.44
2022-09-17T03:49:57.292Z,997.51
2022-09-17T03:50:57.281Z,997.49
2022-09-17T03:51:57.252Z,997.50
2022-09-17T03:52:57.261Z,997.49
2022-09-17T03:53:57.327Z,997.51
2022-09-17T03:54:57.218Z,997.50
2022-09-17T03:55:57.201Z,997.51
2022-09-17T03:56:57.200Z,997.55
2022-09-17T03:57:57.181Z,997.55
2022-09-17T03:58:57.181Z,997.60
2022-09-17T03:59:57.151Z,997.56
2022-09-17T04:00:57.131Z,997.61
2022-09-17T04:01:57.172Z,997.59
2022-09-17T04:02:57.183Z,997.56
2022-09-17T04:03:57.220Z,997.60
2022-09-17T04:04:57.089Z,997.60
2022-09-17T04:05:57.103Z,997.61
2022-09-17T04:06:57.059Z,997.58
2022-09-17T04:07:57.041Z,997.64
2022-09-17T04:08:57.051Z,997.57
2022-09-17T04:09:57.020Z,997.63
2022-09-17T04:10:57.020Z,997.63
2022-09-17T04:11:56.983Z,997.66
2022-09-17T04:12:56.979Z,997.65
2022-09-17T04:13:57.042Z,997.66
2022-09-17T04:14:56.940Z,997.66
2022-09-17T04:15:56.995Z,997.70
2022-09-17T04:16:56.925Z,997.65
2022-09-17T04:17:56.911Z,997.68
2022-09-17T04:18:56.941Z,997.67
2022-09-17T04:19:56.872Z,997.64
2022-09-17T04:20:56.863Z,997.65
2022-09-17T04:21:56.861Z,997.64
2022-09-17T04:22:56.842Z,997.62
2022-09-17T04:23:56.848Z,997.60
2022-09-17T04:24:56.813Z,997.63
2022-09-17T04:25:56.797Z,997.59
2022-09-17T04:26:56.791Z,997.60
2022-09-17T04:27:56.760Z,997.63
2022-09-17T04:28:56.772Z,997.63
2022-09-17T04:29:56.745Z,997.60
2022-09-17T04:30:56.754Z,997.61
2022-09-17T04:31:56.713Z,997.63
2022-09-17T04:32:56.702Z,997.66
2022-09-17T04:33:56.691Z,997.64
2022-09-17T04:34:56.674Z,997.71
2022-09-17T04:35:56.673Z,997.69
2022-09-17T04:36:56.653Z,997.67
2022-09-17T04:37:56.640Z,997.71
2022-09-17T04:38:56.645Z,997.69
2022-09-17T04:39:56.646Z,997.74
2022-09-17T04:40:56.600Z,997.71
2022-09-17T04:41:56.583Z,997.72
2022-09-17T04:42:56.564Z,997.66
2022-09-17T04:43:56.595Z,997.70
2022-09-17T04:44:56.541Z,997.72
2022-09-17T04:45:56.525Z,997.73
2022-09-17T04:46:56.596Z,997.79
2022-09-17T04:47:56.505Z,997.80
2022-09-17T04:48:56.494Z,997.80
2022-09-17T04:49:56.491Z,997.78
2022-09-17T04:50:56.455Z,997.78
2022-09-17T04:51:56.453Z,997.74
2022-09-17T04:52:56.443Z,997.78
2022-09-17T04:53:56.432Z,997.74
2022-09-17T04:54:56.403Z,997.77
2022-09-17T04:55:56.386Z,997.75
2022-09-17T04:56:56.373Z,997.73
2022-09-17T04:57:56.374Z,997.78
2022-09-17T04:58:56.419Z,997.78
2022-09-17T04:59:56.341Z,997.76
2022-09-17T05:00:56.337Z,997.79
2022-09-17T05:01:56.386Z,997.80
2022-09-17T05:02:56.295Z,997.80
2022-09-17T05:03:56.310Z,997.80
2022-09-17T05:04:56.264Z,997.84
2022-09-17T05:05:56.262Z,997.83
2022-09-17T05:06:56.234Z,997.79
2022-09-17T05:07:56.231Z,997.82
2022-09-17T05:08:56.232Z,997.87
2022-09-17T05:09:56.203Z,997.85
2022-09-17T05:10:56.183Z,997.87
2022-09-17T05:11:56.182Z,997.86
2022-09-17T05:12:56.154Z,997.90
2022-09-17T05:13:56.210Z,997.91
2022-09-17T05:14:56.124Z,997.92
2022-09-17T05:15:56.183Z,997.88
2022-09-17T05:16:56.091Z,997.96
2022-09-17T05:17:56.103Z,997.93
2022-09-17T05:18:56.104Z,997.95
2022-09-17T05:19:56.083Z,997.93
2022-09-17T05:20:56.054Z,997.95
2022-09-17T05:21:56.043Z,997.93
2022-09-17T05:22:56.024Z,997.91
2022-09-17T05:23:56.025Z,997.93
2022-09-17T05:24:55.991Z,997.96
2022-09-17T05:25:55.991Z,997.99
2022-09-17T05:26:55.974Z,997.98
2022-09-17T05:27:55.954Z,998.04
2022-09-17T05:28:56.105Z,998.02
2022-09-17T05:29:55.934Z,998.03
2022-09-17T05:30:55.962Z,998.05
2022-09-17T05:31:55.954Z,998.05
2022-09-17T05:32:55.890Z,998.07
2022-09-17T05:33:55.896Z,998.11
2022-09-17T05:34:55.861Z,998.15
2022-09-17T05:35:55.857Z,998.12
2022-09-17T05:36:55.984Z,998.13
2022-09-17T05:37:55.833Z,998.13
2022-09-17T05:38:55.834Z,998.14
2022-09-17T05:39:55.844Z,998.16
2022-09-17T05:40:55.784Z,998.16
2022-09-17T05:41:55.774Z,998.15
2022-09-17T05:42:55.753Z,998.17
2022-09-17T05:43:55.766Z,998.20
2022-09-17T05:44:55.726Z,998.16
2022-09-17T05:45:55.714Z,998.16
2022-09-17T05:46:55.760Z,998.20
2022-09-17T05:47:55.685Z,998.16
2022-09-17T05:48:55.685Z,998.21
2022-09-17T05:49:55.665Z,998.17
2022-09-17T05:50:55.654Z,998.18
2022-09-17T05:51:55.635Z,998.20
2022-09-17T05:52:55.624Z,998.20
2022-09-17T05:53:55.647Z,998.20
2022-09-17T05:54:55.595Z,998.23
2022-09-17T05:55:55.585Z,998.20
2022-09-17T05:56:55.562Z,998.25
2022-09-17T05:57:55.567Z,998.28
2022-09-17T05:58:55.553Z,998.26
2022-09-17T05:59:55.527Z,998.26
2022-09-17T06:00:55.514Z,998.28
2022-09-17T06:01:55.610Z,998.27
2022-09-17T06:02:55.541Z,998.23
2022-09-17T06:03:55.495Z,998.29
2022-09-17T06:04:55.466Z,998.27
2022-09-17T06:05:55.445Z,998.28
2022-09-17T06:06:55.435Z,998.32
2022-09-17T06:07:55.434Z,998.31
2022-09-17T06:08:55.424Z,998.34
2022-09-17T06:09:55.398Z,998.34
2022-09-17T06:10:58.973Z,998.33
2022-09-17T06:11:56.365Z,998.39
2022-09-17T06:12:55.344Z,998.36
2022-09-17T06:13:55.359Z,998.35
2022-09-17T06:14:55.325Z,998.37
2022-09-17T06:15:55.351Z,998.36
2022-09-17T06:16:55.299Z,998.39
2022-09-17T06:17:55.307Z,998.41
2022-09-17T06:18:55.276Z,998.42
2022-09-17T06:19:55.274Z,998.46
2022-09-17T06:20:55.266Z,998.45
2022-09-17T06:21:55.237Z,998.49
2022-09-17T06:22:55.215Z,998.52
2022-09-17T06:23:55.227Z,998.52
2022-09-17T06:24:55.195Z,998.54
2022-09-17T06:25:55.177Z,998.53
2022-09-17T06:26:55.188Z,998.50
2022-09-17T06:27:55.164Z,998.48
2022-09-17T06:28:55.147Z,998.50
2022-09-17T06:29:55.142Z,998.46
2022-09-17T06:30:55.105Z,998.50
2022-09-17T06:31:55.194Z,998.48
2022-09-17T06:32:55.087Z,998.51
2022-09-17T06:33:55.165Z,998.53
2022-09-17T06:34:55.056Z,998.54
2022-09-17T06:35:55.046Z,998.50
2022-09-17T06:36:55.027Z,998.55
2022-09-17T06:37:55.056Z,998.55
2022-09-17T06:38:55.017Z,998.54
2022-09-17T06:39:55.058Z,998.53
2022-09-17T06:40:54.975Z,998.53
2022-09-17T06:41:54.967Z,998.57
2022-09-17T06:42:54.950Z,998.53
2022-09-17T06:43:54.957Z,998.50
2022-09-17T06:44:55.070Z,998.52
2022-09-17T06:45:54.919Z,998.53
2022-09-17T06:46:54.977Z,998.52
2022-09-17T06:47:54.891Z,998.53
2022-09-17T06:48:54.885Z,998.53
2022-09-17T06:49:54.865Z,998.55
2022-09-17T06:50:54.850Z,998.57
2022-09-17T06:51:54.843Z,998.56
2022-09-17T06:52:54.817Z,998.61
2022-09-17T06:53:54.828Z,998.58
2022-09-17T06:54:54.808Z,998.58
2022-09-17T06:55:54.779Z,998.62
2022-09-17T06:56:54.766Z,998.60
2022-09-17T06:57:54.769Z,998.62
2022-09-17T06:58:54.749Z,998.59
2022-09-17T06:59:54.729Z,998.64
2022-09-17T07:00:54.749Z,998.63
2022-09-17T07:01:54.746Z,998.65
2022-09-17T07:02:54.679Z,998.65
2022-09-17T07:03:54.687Z,998.65
2022-09-17T07:04:54.649Z,998.65
2022-09-17T07:05:54.648Z,998.72
2022-09-17T07:06:54.627Z,998.68
2022-09-17T07:08:01.799Z,998.67
2022-09-17T07:08:54.629Z,998.71
2022-09-17T07:09:54.597Z,998.64
2022-09-17T07:10:54.588Z,998.69
2022-09-17T07:11:54.568Z,998.65
2022-09-17T07:12:54.568Z,998.67
2022-09-17T07:13:54.558Z,998.65
2022-09-17T07:14:54.520Z,998.67
2022-09-17T07:15:54.598Z,998.66
2022-09-17T07:16:54.526Z,998.63
2022-09-17T07:17:54.499Z,998.60
2022-09-17T07:18:54.476Z,998.59
2022-09-17T07:19:54.475Z,998.63
2022-09-17T07:20:54.438Z,998.61
2022-09-17T07:21:54.437Z,998.62
2022-09-17T07:22:54.409Z,998.65
2022-09-17T07:23:54.406Z,998.62
2022-09-17T07:24:54.407Z,998.60
2022-09-17T07:25:54.387Z,998.64
2022-09-17T07:26:54.359Z,998.63
2022-09-17T07:27:54.358Z,998.63
2022-09-17T07:28:54.344Z,998.57
2022-09-17T07:29:54.346Z,998.57
2022-09-17T07:30:54.362Z,998.64
2022-09-17T07:31:54.308Z,998.62
2022-09-17T07:32:54.296Z,998.63
2022-09-17T07:33:54.309Z,998.68
2022-09-17T07:34:54.285Z,998.63
2022-09-17T07:35:54.247Z,998.66
2022-09-17T07:36:54.230Z,998.66
2022-09-17T07:37:54.229Z,998.65
2022-09-17T07:38:54.208Z,998.64
2022-09-17T07:39:54.318Z,998.61
2022-09-17T07:40:54.220Z,998.66
2022-09-17T07:41:54.202Z,998.63
2022-09-17T07:42:54.162Z,998.68
2022-09-17T07:43:54.131Z,998.68
2022-09-17T07:44:57.479Z,998.71
2022-09-17T07:45:55.159Z,998.68
2022-09-17T07:46:54.170Z,998.68
2022-09-17T07:47:54.091Z,998.68
2022-09-17T07:48:54.070Z,998.69
2022-09-17T07:49:54.088Z,998.73
2022-09-17T07:50:54.042Z,998.70
2022-09-17T07:51:54.041Z,998.71
2022-09-17T07:52:54.011Z,998.68
2022-09-17T07:53:54.008Z,998.70
2022-09-17T07:54:54.011Z,998.76
2022-09-17T07:55:53.988Z,998.70
2022-09-17T07:56:53.970Z,998.77
2022-09-17T07:57:53.961Z,998.80
2022-09-17T07:58:53.941Z,998.80
2022-09-17T07:59:53.948Z,998.76
2022-09-17T08:00:53.921Z,998.78
2022-09-17T08:01:53.988Z,998.78
2022-09-17T08:02:54.030Z,998.74
2022-09-17T08:03:53.888Z,998.81
2022-09-17T08:04:53.882Z,998.84
2022-09-17T08:05:53.859Z,998.75
2022-09-17T08:06:53.831Z,998.72
2022-09-17T08:07:53.831Z,998.72
2022-09-17T08:08:53.811Z,998.70
2022-09-17T08:09:53.830Z,998.73
2022-09-17T08:10:53.781Z,998.70
2022-09-17T08:11:56.366Z,998.70
2022-09-17T08:12:53.763Z,998.73
2022-09-17T08:13:53.753Z,998.71
2022-09-17T08:14:53.762Z,998.66
2022-09-17T08:15:53.776Z,998.71
2022-09-17T08:16:53.710Z,998.75
2022-09-17T08:17:53.775Z,998.69
2022-09-17T08:18:53.663Z,998.71
2022-09-17T08:19:53.688Z,998.69
2022-09-17T08:20:53.653Z,998.67
2022-09-17T08:21:53.652Z,998.71
2022-09-17T08:22:53.622Z,998.67
2022-09-17T08:23:53.613Z,998.72
2022-09-17T08:24:53.615Z,998.68
2022-09-17T08:25:53.610Z,998.78
2022-09-17T08:26:53.582Z,998.65
2022-09-17T08:27:53.562Z,998.70
2022-09-17T08:28:53.562Z,998.68
2022-09-17T08:29:53.563Z,998.71
2022-09-17T08:30:53.634Z,998.69
2022-09-17T08:31:53.534Z,998.74
2022-09-17T08:32:53.493Z,998.76
2022-09-17T08:33:53.481Z,998.73
2022-09-17T08:34:56.844Z,998.76
2022-09-17T08:35:53.452Z,998.77
2022-09-17T08:36:53.433Z,998.74
2022-09-17T08:37:53.444Z,998.70
2022-09-17T08:38:53.478Z,998.76
2022-09-17T08:39:53.467Z,998.74
2022-09-17T08:40:53.381Z,998.65
2022-09-17T08:41:53.411Z,998.71
2022-09-17T08:42:53.373Z,998.74
2022-09-17T08:43:53.354Z,998.79
2022-09-17T08:44:56.156Z,998.78
2022-09-17T08:45:54.323Z,998.83
2022-09-17T08:46:53.383Z,998.77
2022-09-17T08:47:53.303Z,998.79
2022-09-17T08:48:53.293Z,998.81
2022-09-17T08:49:53.294Z,998.80
2022-09-17T08:50:55.377Z,998.84
2022-09-17T08:51:54.273Z,998.86
2022-09-17T08:52:53.234Z,998.88
2022-09-17T08:53:53.235Z,998.82
2022-09-17T08:54:53.224Z,998.93
2022-09-17T08:55:53.203Z,998.86
2022-09-17T08:56:54.931Z,998.87
2022-09-17T08:57:53.224Z,998.88
2022-09-17T08:58:53.153Z,998.90
2022-09-17T08:59:53.149Z,998.88
2022-09-17T09:00:53.146Z,998.91
2022-09-17T09:01:53.218Z,998.88
2022-09-17T09:02:53.134Z,998.89
2022-09-17T09:03:53.126Z,998.89
2022-09-17T09:04:53.094Z,998.90
2022-09-17T09:05:53.063Z,998.91
2022-09-17T09:06:53.042Z,998.88
2022-09-17T09:07:53.065Z,998.92
2022-09-17T09:08:53.023Z,998.90
2022-09-17T09:09:53.013Z,998.87
2022-09-17T09:10:53.015Z,998.85
2022-09-17T09:11:52.982Z,998.88
2022-09-17T09:12:52.984Z,998.86
2022-09-17T09:13:52.959Z,998.91
2022-09-17T09:14:52.944Z,998.88
2022-09-17T09:15:52.984Z,998.86
2022-09-17T09:16:53.016Z,998.83
2022-09-17T09:17:52.913Z,998.83
2022-09-17T09:18:52.893Z,998.85
2022-09-17T09:19:52.858Z,998.90
2022-09-17T09:20:52.873Z,998.81
2022-09-17T09:21:52.833Z,998.88
2022-09-17T09:22:52.825Z,998.87
2022-09-17T09:23:52.814Z,998.86
2022-09-17T09:24:52.815Z,998.88
2022-09-17T09:25:52.811Z,998.87
2022-09-17T09:26:57.819Z,998.86
2022-09-17T09:27:53.765Z,998.91
2022-09-17T09:28:52.773Z,998.90
2022-09-17T09:29:52.796Z,998.90
2022-09-17T09:30:52.804Z,998.89
2022-09-17T09:31:52.886Z,998.88
2022-09-17T09:32:52.763Z,998.90
2022-09-17T09:33:52.707Z,998.90
2022-09-17T09:34:52.695Z,998.92
2022-09-17T09:35:52.715Z,998.94
2022-09-17T09:36:52.681Z,998.94
2022-09-17T09:37:52.635Z,998.97
2022-09-17T09:38:52.624Z,998.99
2022-09-17T09:39:52.653Z,998.98
2022-09-17T09:40:52.616Z,999.01
2022-09-17T09:41:52.584Z,998.96
2022-09-17T09:42:52.609Z,998.93
2022-09-17T09:44:03.605Z,998.89
2022-09-17T09:44:53.553Z,998.93
2022-09-17T09:45:52.588Z,998.94
2022-09-17T09:46:52.617Z,998.89
2022-09-17T09:47:52.505Z,998.86
2022-09-17T09:48:52.496Z,998.86
2022-09-17T09:49:52.500Z,998.90
2022-09-17T09:51:06.193Z,998.93
2022-09-17T09:51:53.455Z,998.84
2022-09-17T09:52:52.456Z,998.82
2022-09-17T09:53:52.448Z,998.84
2022-09-17T09:54:52.416Z,998.80
2022-09-17T09:55:52.416Z,998.81
2022-09-17T09:56:52.401Z,998.75
2022-09-17T09:57:52.379Z,998.74
2022-09-17T09:58:52.376Z,998.76
2022-09-17T09:59:52.369Z,998.81
2022-09-17T10:00:52.390Z,998.84
2022-09-17T10:01:52.500Z,998.86
2022-09-17T10:02:52.336Z,998.84
2022-09-17T10:03:52.303Z,998.83
2022-09-17T10:04:53.570Z,998.73
2022-09-17T10:05:52.258Z,998.83
2022-09-17T10:06:52.316Z,998.78
2022-09-17T10:07:52.276Z,998.76
2022-09-17T10:08:52.365Z,998.78
2022-09-17T10:09:52.227Z,998.78
2022-09-17T10:10:52.206Z,998.79
2022-09-17T10:11:52.247Z,998.73
2022-09-17T10:12:52.269Z,998.73
2022-09-17T10:13:52.177Z,998.77
2022-09-17T10:14:52.158Z,998.73
2022-09-17T10:15:52.201Z,998.72
2022-09-17T10:16:52.180Z,998.74
2022-09-17T10:17:52.115Z,998.77
2022-09-17T10:18:52.086Z,998.72
2022-09-17T10:19:52.156Z,998.65
2022-09-17T10:20:52.077Z,998.65
2022-09-17T10:21:52.098Z,998.58
2022-09-17T10:22:52.047Z,998.59
2022-09-17T10:23:52.037Z,998.59
2022-09-17T10:24:52.028Z,998.62
2022-09-17T10:25:52.006Z,998.67
2022-09-17T10:26:52.052Z,998.55
2022-09-17T10:27:51.993Z,998.60
2022-09-17T10:28:52.014Z,998.61
2022-09-17T10:29:51.980Z,998.58
2022-09-17T10:30:51.949Z,998.56
2022-09-17T10:31:51.961Z,998.57
2022-09-17T10:32:51.918Z,998.73
2022-09-17T10:33:51.908Z,998.76
2022-09-17T10:34:51.899Z,998.87
2022-09-17T10:35:51.869Z,998.87
2022-09-17T10:36:51.876Z,998.90
2022-09-17T10:37:51.859Z,998.92
2022-09-17T10:38:51.838Z,999.05
2022-09-17T10:39:51.889Z,999.09
2022-09-17T10:40:51.861Z,999.10
2022-09-17T10:41:51.809Z,999.12
2022-09-17T10:42:51.789Z,999.14
2022-09-17T10:43:51.777Z,999.19
2022-09-17T10:44:51.750Z,999.18
2022-09-17T10:45:51.741Z,999.18
2022-09-17T10:46:51.812Z,999.21
2022-09-17T10:47:51.732Z,999.20
2022-09-17T10:48:51.707Z,999.17
2022-09-17T10:49:51.679Z,999.12
2022-09-17T10:50:51.770Z,999.08
2022-09-17T10:51:51.860Z,999.05
2022-09-17T10:52:51.669Z,998.99
2022-09-17T10:53:51.631Z,998.97
2022-09-17T10:54:52.193Z,998.93
2022-09-17T10:55:52.697Z,998.94
2022-09-17T10:56:52.074Z,998.91
2022-09-17T10:57:51.599Z,998.91
2022-09-17T10:58:51.580Z,998.90
2022-09-17T10:59:51.562Z,998.98
2022-09-17T11:00:51.566Z,998.93
2022-09-17T11:01:51.674Z,998.96
2022-09-17T11:02:51.588Z,998.96
2022-09-17T11:03:51.504Z,998.94
2022-09-17T11:04:51.499Z,998.98
2022-09-17T11:05:51.469Z,998.96
2022-09-17T11:06:51.468Z,999.07
2022-09-17T11:07:51.820Z,999.04
2022-09-17T11:08:51.578Z,998.93
2022-09-17T11:09:51.492Z,998.99
2022-09-17T11:10:51.438Z,998.91
2022-09-17T11:11:51.495Z,998.88
2022-09-17T11:12:51.412Z,998.85
2022-09-17T11:13:51.371Z,998.74
2022-09-17T11:14:51.370Z,998.72
2022-09-17T11:15:53.211Z,998.78
2022-09-17T11:16:51.332Z,998.75
2022-09-17T11:17:51.332Z,998.74
2022-09-17T11:18:51.319Z,998.72
2022-09-17T11:19:51.297Z,998.67
2022-09-17T11:20:51.282Z,998.62
2022-09-17T11:21:51.302Z,998.62
2022-09-17T11:22:51.261Z,998.60
2022-09-17T11:23:51.240Z,998.60
2022-09-17T11:24:51.231Z,998.59
2022-09-17T11:25:51.221Z,998.60
2022-09-17T11:26:51.202Z,998.54
2022-09-17T11:27:51.201Z,998.55
2022-09-17T11:28:51.182Z,998.52
2022-09-17T11:29:51.193Z,998.56
2022-09-17T11:30:51.172Z,998.56
2022-09-17T11:31:51.305Z,998.54
2022-09-17T11:32:51.161Z,998.52
2022-09-17T11:33:51.181Z,998.52
2022-09-17T11:34:51.113Z,998.50
2022-09-17T11:35:51.111Z,998.52
2022-09-17T11:36:51.072Z,998.54
2022-09-17T11:37:51.060Z,998.49
2022-09-17T11:38:51.061Z,998.54
2022-09-17T11:39:51.105Z,998.56
2022-09-17T11:40:51.023Z,998.57
2022-09-17T11:41:51.033Z,998.59
2022-09-17T11:42:50.992Z,998.59
2022-09-17T11:43:50.992Z,998.54
2022-09-17T11:44:50.962Z,998.56
2022-09-17T11:45:51.144Z,998.51
2022-09-17T11:46:50.986Z,998.48
2022-09-17T11:47:51.191Z,998.48
2022-09-17T11:48:50.924Z,998.41
2022-09-17T11:49:51.051Z,998.38
2022-09-17T11:50:50.883Z,998.39
2022-09-17T11:51:55.173Z,998.39
2022-09-17T11:52:50.864Z,998.38
2022-09-17T11:53:50.864Z,998.32
2022-09-17T11:54:50.835Z,998.38
2022-09-17T11:55:51.184Z,998.31
2022-09-17T11:56:50.804Z,998.28
2022-09-17T11:57:50.815Z,998.29
2022-09-17T11:58:50.775Z,998.29
2022-09-17T11:59:50.765Z,998.25
2022-09-17T12:00:50.783Z,998.29
2022-09-17T12:01:50.781Z,998.32
2022-09-17T12:02:50.806Z,998.32
2022-09-17T12:03:50.712Z,998.36
2022-09-17T12:04:50.705Z,998.36
2022-09-17T12:05:50.682Z,998.32
2022-09-17T12:06:50.680Z,998.31
2022-09-17T12:07:50.735Z,998.32
2022-09-17T12:08:50.647Z,998.31
2022-09-17T12:09:50.644Z,998.32
2022-09-17T12:10:50.634Z,998.41
2022-09-17T12:11:50.609Z,998.33
2022-09-17T12:12:50.811Z,998.36
2022-09-17T12:13:50.600Z,998.36
2022-09-17T12:14:50.584Z,998.32
2022-09-17T12:15:53.364Z,998.31
2022-09-17T12:16:50.688Z,998.25
2022-09-17T12:17:50.527Z,998.25
2022-09-17T12:18:50.557Z,998.22
2022-09-17T12:19:50.504Z,998.20
2022-09-17T12:20:50.485Z,998.28
2022-09-17T12:21:50.506Z,998.19
2022-09-17T12:22:50.469Z,998.20
2022-09-17T12:23:50.456Z,998.13
2022-09-17T12:24:50.436Z,998.14
2022-09-17T12:25:50.426Z,998.10
2022-09-17T12:26:50.413Z,998.09
2022-09-17T12:27:50.387Z,998.03
2022-09-17T12:28:50.416Z,997.98
2022-09-17T12:29:50.363Z,998.08